sensor_id;sensor_type;location;lat;lon;timestamp;pressure;altitude;pressure_sealevel;temperature;humidity
51715;BME280;39115;59.332;18.034;2023-03-04T00:02:18;99895.22;;;1.29;41.50
51715;BME280;39115;59.332;18.034;2023-03-04T00:04:38;99884.84;;;1.28;41.57
51715;BME280;39115;59.332;18.034;2023-03-04T00:06:58;99897.28;;;1.24;41.74
51715;BME280;39115;59.332;18.034;2023-03-04T00:09:19;99885.19;;;1.21;41.52
51715;BME280;39115;59.332;18.034;2023-03-04T00:11:39;99879.22;;;1.19;41.73
51715;BME280;39115;59.332;18.034;2023-03-04T00:14:00;99874.16;;;1.16;41.80
51715;BME280;39115;59.332;18.034;2023-03-04T00:16:21;99894.38;;;1.14;41.54
51715;BME280;39115;59.332;18.034;2023-03-04T00:18:41;99912.94;;;1.11;41.44
51715;BME280;39115;59.332;18.034;2023-03-04T00:21:02;99878.94;;;1.09;41.55
51715;BME280;39115;59.332;18.034;2023-03-04T00:23:22;99917.53;;;1.07;41.72
51715;BME280;39115;59.332;18.034;2023-03-04T00:25:43;99911.53;;;1.05;41.63
51715;BME280;39115;59.332;18.034;2023-03-04T00:28:03;99880.19;;;1.04;41.60
51715;BME280;39115;59.332;18.034;2023-03-04T00:30:24;99908.25;;;1.02;41.41
51715;BME280;39115;59.332;18.034;2023-03-04T00:32:44;99913.66;;;0.99;41.80
51715;BME280;39115;59.332;18.034;2023-03-04T00:35:05;99881.50;;;0.97;41.64
51715;BME280;39115;59.332;18.034;2023-03-04T00:37:26;99885.13;;;0.94;41.54
51715;BME280;39115;59.332;18.034;2023-03-04T00:39:46;99861.63;;;0.92;41.50
51715;BME280;39115;59.332;18.034;2023-03-04T00:42:07;99875.78;;;0.90;41.35
51715;BME280;39115;59.332;18.034;2023-03-04T00:44:27;99886.44;;;0.87;41.62
51715;BME280;39115;59.332;18.034;2023-03-04T00:46:48;99876.97;;;0.84;41.66
51715;BME280;39115;59.332;18.034;2023-03-04T00:49:09;99897.13;;;0.84;41.48
51715;BME280;39115;59.332;18.034;2023-03-04T00:51:29;99891.22;;;0.80;41.46
51715;BME280;39115;59.332;18.034;2023-03-04T00:53:50;99877.47;;;0.76;41.67
51715;BME280;39115;59.332;18.034;2023-03-04T00:56:11;99888.97;;;0.74;41.97
51715;BME280;39115;59.332;18.034;2023-03-04T00:58:32;99902.25;;;0.71;41.73
51715;BME280;39115;59.332;18.034;2023-03-04T01:00:52;99888.28;;;0.70;41.79
51715;BME280;39115;59.332;18.034;2023-03-04T01:03:13;99902.53;;;0.66;42.07
51715;BME280;39115;59.332;18.034;2023-03-04T01:05:33;99886.03;;;0.64;41.77
51715;BME280;39115;59.332;18.034;2023-03-04T01:07:55;99903.66;;;0.62;41.75
51715;BME280;39115;59.332;18.034;2023-03-04T01:10:15;99870.59;;;0.59;42.01
51715;BME280;39115;59.332;18.034;2023-03-04T01:12:36;99883.81;;;0.58;41.71
51715;BME280;39115;59.332;18.034;2023-03-04T01:14:56;99882.22;;;0.55;42.24
51715;BME280;39115;59.332;18.034;2023-03-04T01:17:17;99873.59;;;0.53;42.02
51715;BME280;39115;59.332;18.034;2023-03-04T01:19:37;99878.06;;;0.51;42.02
51715;BME280;39115;59.332;18.034;2023-03-04T01:21:58;99887.81;;;0.49;42.22
51715;BME280;39115;59.332;18.034;2023-03-04T01:24:18;99875.75;;;0.46;42.17
51715;BME280;39115;59.332;18.034;2023-03-04T01:26:39;99883.78;;;0.43;42.20
51715;BME280;39115;59.332;18.034;2023-03-04T01:29:00;99889.19;;;0.40;42.06
51715;BME280;39115;59.332;18.034;2023-03-04T01:31:20;99916.41;;;0.38;42.44
51715;BME280;39115;59.332;18.034;2023-03-04T01:33:41;99890.31;;;0.36;42.22
51715;BME280;39115;59.332;18.034;2023-03-04T01:36:01;99895.72;;;0.33;42.12
51715;BME280;39115;59.332;18.034;2023-03-04T01:38:22;99894.13;;;0.30;42.31
51715;BME280;39115;59.332;18.034;2023-03-04T01:40:42;99900.41;;;0.28;42.30
51715;BME280;39115;59.332;18.034;2023-03-04T01:43:03;99902.25;;;0.26;42.47
51715;BME280;39115;59.332;18.034;2023-03-04T01:45:24;99903.28;;;0.23;42.37
51715;BME280;39115;59.332;18.034;2023-03-04T01:47:46;99894.66;;;0.21;42.30
51715;BME280;39115;59.332;18.034;2023-03-04T01:50:16;99900.81;;;0.20;42.55
51715;BME280;39115;59.332;18.034;2023-03-04T01:52:39;99917.50;;;0.19;42.36
51715;BME280;39115;59.332;18.034;2023-03-04T01:55:00;99890.56;;;0.17;42.24
51715;BME280;39115;59.332;18.034;2023-03-04T01:57:24;99892.41;;;0.15;42.46
51715;BME280;39115;59.332;18.034;2023-03-04T01:59:45;99874.25;;;0.12;42.36
51715;BME280;39115;59.332;18.034;2023-03-04T02:02:06;99873.41;;;0.11;42.79
51715;BME280;39115;59.332;18.034;2023-03-04T02:04:30;99866.69;;;0.07;42.33
51715;BME280;39115;59.332;18.034;2023-03-04T02:06:53;99900.06;;;0.04;42.54
51715;BME280;39115;59.332;18.034;2023-03-04T02:09:15;99862.81;;;-0.02;42.58
51715;BME280;39115;59.332;18.034;2023-03-04T02:11:37;99920.56;;;-0.05;42.40
51715;BME280;39115;59.332;18.034;2023-03-04T02:13:58;99882.25;;;-0.06;42.46
51715;BME280;39115;59.332;18.034;2023-03-04T02:16:19;99872.81;;;-0.08;42.48
51715;BME280;39115;59.332;18.034;2023-03-04T02:18:39;99858.88;;;-0.09;42.20
51715;BME280;39115;59.332;18.034;2023-03-04T02:23:48;99862.66;;;-0.14;42.34
51715;BME280;39115;59.332;18.034;2023-03-04T02:26:17;99896.78;;;-0.16;42.20
51715;BME280;39115;59.332;18.034;2023-03-04T02:28:38;99865.53;;;-0.19;42.14
51715;BME280;39115;59.332;18.034;2023-03-04T02:30:59;99863.03;;;-0.21;42.02
51715;BME280;39115;59.332;18.034;2023-03-04T02:33:20;99849.19;;;-0.23;41.95
51715;BME280;39115;59.332;18.034;2023-03-04T02:35:40;99851.91;;;-0.24;42.07
51715;BME280;39115;59.332;18.034;2023-03-04T02:38:01;99870.31;;;-0.26;41.98
51715;BME280;39115;59.332;18.034;2023-03-04T02:40:29;99871.31;;;-0.28;41.81
51715;BME280;39115;59.332;18.034;2023-03-04T02:42:50;99883.63;;;-0.30;41.51
51715;BME280;39115;59.332;18.034;2023-03-04T02:45:30;99885.41;;;-0.31;41.74
51715;BME280;39115;59.332;18.034;2023-03-04T02:47:53;99865.50;;;-0.34;41.37
51715;BME280;39115;59.332;18.034;2023-03-04T02:50:13;99869.88;;;-0.34;41.35
51715;BME280;39115;59.332;18.034;2023-03-04T02:52:34;99873.44;;;-0.35;41.21
51715;BME280;39115;59.332;18.034;2023-03-04T02:54:54;99868.28;;;-0.37;41.18
51715;BME280;39115;59.332;18.034;2023-03-04T02:57:15;99864.00;;;-0.38;40.76
51715;BME280;39115;59.332;18.034;2023-03-04T02:59:36;99889.38;;;-0.40;40.78
51715;BME280;39115;59.332;18.034;2023-03-04T03:01:57;99858.09;;;-0.41;40.41
51715;BME280;39115;59.332;18.034;2023-03-04T03:04:19;99860.81;;;-0.43;40.59
51715;BME280;39115;59.332;18.034;2023-03-04T03:06:40;99868.72;;;-0.44;39.99
51715;BME280;39115;59.332;18.034;2023-03-04T03:09:01;99869.72;;;-0.47;40.08
51715;BME280;39115;59.332;18.034;2023-03-04T03:11:22;99869.72;;;-0.47;39.83
51715;BME280;39115;59.332;18.034;2023-03-04T03:13:42;99903.81;;;-0.49;39.48
51715;BME280;39115;59.332;18.034;2023-03-04T03:16:03;99880.44;;;-0.52;39.37
51715;BME280;39115;59.332;18.034;2023-03-04T03:18:23;99877.06;;;-0.54;39.57
51715;BME280;39115;59.332;18.034;2023-03-04T03:20:44;99886.78;;;-0.56;39.49
51715;BME280;39115;59.332;18.034;2023-03-04T03:23:05;99905.25;;;-0.59;39.29
51715;BME280;39115;59.332;18.034;2023-03-04T03:25:25;99894.09;;;-0.62;39.38
51715;BME280;39115;59.332;18.034;2023-03-04T03:27:46;99849.00;;;-0.66;39.19
51715;BME280;39115;59.332;18.034;2023-03-04T03:30:09;99873.53;;;-0.69;38.78
51715;BME280;39115;59.332;18.034;2023-03-04T03:32:30;99865.78;;;-0.70;38.89
51715;BME280;39115;59.332;18.034;2023-03-04T03:34:51;99892.19;;;-0.75;38.79
51715;BME280;39115;59.332;18.034;2023-03-04T03:37:12;99842.81;;;-0.81;38.80
51715;BME280;39115;59.332;18.034;2023-03-04T03:39:33;99850.00;;;-0.85;38.79
51715;BME280;39115;59.332;18.034;2023-03-04T03:41:53;99858.84;;;-0.87;38.86
51715;BME280;39115;59.332;18.034;2023-03-04T03:44:14;99861.56;;;-0.89;38.85
51715;BME280;39115;59.332;18.034;2023-03-04T03:46:34;99847.63;;;-0.89;38.90
51715;BME280;39115;59.332;18.034;2023-03-04T03:48:55;99861.69;;;-0.92;38.76
51715;BME280;39115;59.332;18.034;2023-03-04T03:51:15;99845.28;;;-0.94;38.95
51715;BME280;39115;59.332;18.034;2023-03-04T03:53:36;99838.38;;;-0.95;38.81
51715;BME280;39115;59.332;18.034;2023-03-04T03:55:56;99855.97;;;-0.99;38.71
51715;BME280;39115;59.332;18.034;2023-03-04T03:58:18;99888.41;;;-1.03;38.84
51715;BME280;39115;59.332;18.034;2023-03-04T04:00:38;99854.63;;;-1.06;38.77
51715;BME280;39115;59.332;18.034;2023-03-04T04:02:59;99835.66;;;-1.09;38.89
51715;BME280;39115;59.332;18.034;2023-03-04T04:05:20;99869.78;;;-1.13;38.70
51715;BME280;39115;59.332;18.034;2023-03-04T04:07:41;99864.69;;;-1.16;38.72
51715;BME280;39115;59.332;18.034;2023-03-04T04:10:03;99857.03;;;-1.19;38.81
51715;BME280;39115;59.332;18.034;2023-03-04T04:12:24;99876.34;;;-1.21;38.59
51715;BME280;39115;59.332;18.034;2023-03-04T04:14:44;99866.97;;;-1.25;38.60
51715;BME280;39115;59.332;18.034;2023-03-04T04:17:05;99889.78;;;-1.29;38.69
51715;BME280;39115;59.332;18.034;2023-03-04T04:19:25;99876.91;;;-1.32;38.60
51715;BME280;39115;59.332;18.034;2023-03-04T04:21:47;99857.00;;;-1.35;38.34
51715;BME280;39115;59.332;18.034;2023-03-04T04:24:07;99872.91;;;-1.39;38.48
51715;BME280;39115;59.332;18.034;2023-03-04T04:26:28;99851.25;;;-1.41;38.28
51715;BME280;39115;59.332;18.034;2023-03-04T04:28:48;99880.13;;;-1.45;38.14
51715;BME280;39115;59.332;18.034;2023-03-04T04:31:09;99878.63;;;-1.49;38.34
51715;BME280;39115;59.332;18.034;2023-03-04T04:33:29;99876.97;;;-1.51;38.27
51715;BME280;39115;59.332;18.034;2023-03-04T04:35:50;99867.53;;;-1.54;38.31
51715;BME280;39115;59.332;18.034;2023-03-04T04:38:10;99896.44;;;-1.57;38.38
51715;BME280;39115;59.332;18.034;2023-03-04T04:40:31;99889.75;;;-1.63;37.94
51715;BME280;39115;59.332;18.034;2023-03-04T04:42:51;99884.69;;;-1.66;38.18
51715;BME280;39115;59.332;18.034;2023-03-04T04:45:12;99870.88;;;-1.68;38.08
51715;BME280;39115;59.332;18.034;2023-03-04T04:47:32;99899.66;;;-1.69;37.99
51715;BME280;39115;59.332;18.034;2023-03-04T04:49:53;99895.44;;;-1.72;38.01
51715;BME280;39115;59.332;18.034;2023-03-04T04:52:13;99887.78;;;-1.75;37.94
51715;BME280;39115;59.332;18.034;2023-03-04T04:54:34;99882.69;;;-1.78;38.06
51715;BME280;39115;59.332;18.034;2023-03-04T04:56:54;99901.09;;;-1.81;38.21
51715;BME280;39115;59.332;18.034;2023-03-04T04:59:15;99884.84;;;-1.86;37.94
51715;BME280;39115;59.332;18.034;2023-03-04T05:01:35;99905.81;;;-1.88;37.63
51715;BME280;39115;59.332;18.034;2023-03-04T05:03:56;99911.25;;;-1.93;37.72
51715;BME280;39115;59.332;18.034;2023-03-04T05:06:17;99904.34;;;-1.94;37.95
51715;BME280;39115;59.332;18.034;2023-03-04T05:08:38;99910.56;;;-1.96;37.85
51715;BME280;39115;59.332;18.034;2023-03-04T05:10:59;99899.34;;;-1.98;37.67
51715;BME280;39115;59.332;18.034;2023-03-04T05:13:19;99903.72;;;-1.99;37.71
51715;BME280;39115;59.332;18.034;2023-03-04T05:15:40;99929.13;;;-2.02;37.68
51715;BME280;39115;59.332;18.034;2023-03-04T05:18:01;99876.16;;;-2.04;37.91
51715;BME280;39115;59.332;18.034;2023-03-04T05:20:21;99911.06;;;-2.07;37.62
51715;BME280;39115;59.332;18.034;2023-03-04T05:22:43;99931.25;;;-2.11;37.57
51715;BME280;39115;59.332;18.034;2023-03-04T05:25:03;99923.47;;;-2.12;37.75
51715;BME280;39115;59.332;18.034;2023-03-04T05:27:24;99935.75;;;-2.14;37.61
51715;BME280;39115;59.332;18.034;2023-03-04T05:29:45;99900.16;;;-2.15;37.78
51715;BME280;39115;59.332;18.034;2023-03-04T05:32:06;99912.44;;;-2.17;37.48
51715;BME280;39115;59.332;18.034;2023-03-04T05:34:26;99919.41;;;-2.18;37.52
51715;BME280;39115;59.332;18.034;2023-03-04T05:36:46;99916.81;;;-2.18;37.93
51715;BME280;39115;59.332;18.034;2023-03-04T05:39:07;99916.03;;;-2.20;37.65
51715;BME280;39115;59.332;18.034;2023-03-04T05:41:28;99929.13;;;-2.22;38.04
51715;BME280;39115;59.332;18.034;2023-03-04T05:43:49;99919.69;;;-2.24;38.08
51715;BME280;39115;59.332;18.034;2023-03-04T05:46:14;99918.06;;;-2.27;37.92
51715;BME280;39115;59.332;18.034;2023-03-04T05:48:35;99937.19;;;-2.26;37.77
51715;BME280;39115;59.332;18.034;2023-03-04T05:50:57;99932.13;;;-2.29;37.95
51715;BME280;39115;59.332;18.034;2023-03-04T05:53:18;99959.09;;;-2.30;37.92
51715;BME280;39115;59.332;18.034;2023-03-04T05:55:38;99993.97;;;-2.33;37.87
51715;BME280;39115;59.332;18.034;2023-03-04T05:57:59;99936.72;;;-2.34;37.96
51715;BME280;39115;59.332;18.034;2023-03-04T06:00:19;99946.22;;;-2.33;38.05
51715;BME280;39115;59.332;18.034;2023-03-04T06:02:41;99973.91;;;-2.31;38.05
51715;BME280;39115;59.332;18.034;2023-03-04T06:05:03;99951.34;;;-2.32;38.14
51715;BME280;39115;59.332;18.034;2023-03-04T06:07:24;99958.25;;;-2.31;38.02
51715;BME280;39115;59.332;18.034;2023-03-04T06:09:44;99957.41;;;-2.31;38.25
51715;BME280;39115;59.332;18.034;2023-03-04T06:12:05;99967.84;;;-2.31;38.30
51715;BME280;39115;59.332;18.034;2023-03-04T06:14:25;99983.56;;;-2.33;38.29
51715;BME280;39115;59.332;18.034;2023-03-04T06:16:46;99972.22;;;-2.32;38.02
51715;BME280;39115;59.332;18.034;2023-03-04T06:19:07;99970.38;;;-2.30;38.18
51715;BME280;39115;59.332;18.034;2023-03-04T06:21:28;99956.41;;;-2.29;38.07
51715;BME280;39115;59.332;18.034;2023-03-04T06:23:48;99971.31;;;-2.31;38.35
51715;BME280;39115;59.332;18.034;2023-03-04T06:26:09;99980.81;;;-2.30;38.36
51715;BME280;39115;59.332;18.034;2023-03-04T06:28:34;99970.38;;;-2.30;38.21
51715;BME280;39115;59.332;18.034;2023-03-04T06:30:55;99970.38;;;-2.30;38.39
51715;BME280;39115;59.332;18.034;2023-03-04T06:33:17;99978.22;;;-2.30;38.24
51715;BME280;39115;59.332;18.034;2023-03-04T06:35:37;99980.81;;;-2.30;38.37
51715;BME280;39115;59.332;18.034;2023-03-04T06:37:58;99970.38;;;-2.30;38.66
51715;BME280;39115;59.332;18.034;2023-03-04T06:40:18;99990.31;;;-2.29;38.26
51715;BME280;39115;59.332;18.034;2023-03-04T06:42:39;99992.09;;;-2.29;38.47
51715;BME280;39115;59.332;18.034;2023-03-04T06:45:00;99979.88;;;-2.29;38.42
51715;BME280;39115;59.332;18.034;2023-03-04T06:47:21;100003.41;;;-2.30;38.46
51715;BME280;39115;59.332;18.034;2023-03-04T06:49:42;99993.84;;;-2.30;38.55
51715;BME280;39115;59.332;18.034;2023-03-04T06:52:02;99998.91;;;-2.27;38.57
51715;BME280;39115;59.332;18.034;2023-03-04T06:54:23;100004.03;;;-2.25;38.78
51715;BME280;39115;59.332;18.034;2023-03-04T06:56:43;100000.59;;;-2.26;38.95
51715;BME280;39115;59.332;18.034;2023-03-04T06:59:04;99990.25;;;-2.27;38.78
51715;BME280;39115;59.332;18.034;2023-03-04T07:01:26;100014.44;;;-2.24;38.80
51715;BME280;39115;59.332;18.034;2023-03-04T07:03:48;100023.94;;;-2.23;39.00
51715;BME280;39115;59.332;18.034;2023-03-04T07:06:10;99994.41;;;-2.23;39.14
51715;BME280;39115;59.332;18.034;2023-03-04T07:08:31;99994.31;;;-2.22;38.94
51715;BME280;39115;59.332;18.034;2023-03-04T07:10:52;100001.19;;;-2.19;39.00
51715;BME280;39115;59.332;18.034;2023-03-04T07:13:12;99998.41;;;-2.16;38.99
51715;BME280;39115;59.332;18.034;2023-03-04T07:15:33;100013.00;;;-2.12;39.19
51715;BME280;39115;59.332;18.034;2023-03-04T07:17:55;99998.81;;;-2.06;39.07
51715;BME280;39115;59.332;18.034;2023-03-04T07:20:15;100002.91;;;-2.00;39.15
51715;BME280;39115;59.332;18.034;2023-03-04T07:22:36;100010.69;;;-1.99;39.08
51715;BME280;39115;59.332;18.034;2023-03-04T07:24:57;100000.84;;;-1.94;39.44
51715;BME280;39115;59.332;18.034;2023-03-04T07:27:17;100046.00;;;-1.92;39.43
51715;BME280;39115;59.332;18.034;2023-03-04T07:29:38;100021.66;;;-1.92;39.27
51715;BME280;39115;59.332;18.034;2023-03-04T07:31:58;100002.38;;;-1.89;39.22
51715;BME280;39115;59.332;18.034;2023-03-04T07:34:18;100014.47;;;-1.87;39.22
51715;BME280;39115;59.332;18.034;2023-03-04T07:36:40;100020.38;;;-1.83;39.40
51715;BME280;39115;59.332;18.034;2023-03-04T07:39:02;100010.78;;;-1.83;39.43
51715;BME280;39115;59.332;18.034;2023-03-04T07:41:26;100018.53;;;-1.81;39.30
51715;BME280;39115;59.332;18.034;2023-03-04T07:43:46;100027.84;;;-1.76;39.06
51715;BME280;39115;59.332;18.034;2023-03-04T07:46:07;100013.88;;;-1.75;39.27
51715;BME280;39115;59.332;18.034;2023-03-04T07:48:28;100037.91;;;-1.68;39.34
51715;BME280;39115;59.332;18.034;2023-03-04T07:50:49;100021.19;;;-1.64;39.18
51715;BME280;39115;59.332;18.034;2023-03-04T07:53:09;100034.69;;;-1.55;39.53
51715;BME280;39115;59.332;18.034;2023-03-04T07:55:30;100030.72;;;-1.45;39.48
51715;BME280;39115;59.332;18.034;2023-03-04T07:57:50;100049.41;;;-1.35;39.21
51715;BME280;39115;59.332;18.034;2023-03-04T08:00:13;100047.94;;;-1.23;39.25
51715;BME280;39115;59.332;18.034;2023-03-04T08:02:34;100049.47;;;-1.19;39.37
51715;BME280;39115;59.332;18.034;2023-03-04T08:04:55;100038.97;;;-1.18;39.17
51715;BME280;39115;59.332;18.034;2023-03-04T08:07:15;100035.34;;;-1.15;39.23
51715;BME280;39115;59.332;18.034;2023-03-04T08:09:36;100039.47;;;-1.11;38.98
51715;BME280;39115;59.332;18.034;2023-03-04T08:11:56;100048.19;;;-1.10;39.16
51715;BME280;39115;59.332;18.034;2023-03-04T08:14:17;100075.00;;;-1.07;38.95
51715;BME280;39115;59.332;18.034;2023-03-04T08:16:37;100039.47;;;-1.11;39.24
51715;BME280;39115;59.332;18.034;2023-03-04T08:19:00;100048.09;;;-1.09;39.24
51715;BME280;39115;59.332;18.034;2023-03-04T08:21:22;100084.75;;;-1.10;39.17
51715;BME280;39115;59.332;18.034;2023-03-04T08:23:42;100063.09;;;-1.13;39.06
51715;BME280;39115;59.332;18.034;2023-03-04T08:26:08;100035.19;;;-1.12;39.12
51715;BME280;39115;59.332;18.034;2023-03-04T08:28:29;100044.88;;;-1.14;39.12
51715;BME280;39115;59.332;18.034;2023-03-04T08:30:53;100059.47;;;-1.10;39.09
51715;BME280;39115;59.332;18.034;2023-03-04T08:33:13;100089.66;;;-1.04;38.89
51715;BME280;39115;59.332;18.034;2023-03-04T08:35:40;100100.81;;;-1.01;39.18
51715;BME280;39115;59.332;18.034;2023-03-04T08:38:00;100069.22;;;-0.96;38.86
51715;BME280;39115;59.332;18.034;2023-03-04T08:40:21;100049.69;;;-0.89;38.73
51715;BME280;39115;59.332;18.034;2023-03-04T08:42:42;100073.31;;;-0.90;38.56
51715;BME280;39115;59.332;18.034;2023-03-04T08:45:04;100048.56;;;-0.83;38.58
51715;BME280;39115;59.332;18.034;2023-03-04T08:47:25;100058.22;;;-0.68;38.57
51715;BME280;39115;59.332;18.034;2023-03-04T08:49:45;100066.19;;;-0.53;38.70
51715;BME280;39115;59.332;18.034;2023-03-04T08:52:06;100075.94;;;-0.39;38.71
51715;BME280;39115;59.332;18.034;2023-03-04T08:54:26;100070.84;;;-0.42;38.71
51715;BME280;39115;59.332;18.034;2023-03-04T08:56:47;100058.28;;;-0.36;38.80
51715;BME280;39115;59.332;18.034;2023-03-04T08:59:07;100092.13;;;-0.33;38.58
51715;BME280;39115;59.332;18.034;2023-03-04T09:01:28;100096.66;;;-0.36;38.54
51715;BME280;39115;59.332;18.034;2023-03-04T09:03:48;100077.53;;;-0.37;38.64
51715;BME280;39115;59.332;18.034;2023-03-04T09:06:12;100098.94;;;-0.46;38.76
51715;BME280;39115;59.332;18.034;2023-03-04T09:08:33;100090.72;;;-0.56;39.04
51715;BME280;39115;59.332;18.034;2023-03-04T09:10:54;100082.09;;;-0.58;39.33
51715;BME280;39115;59.332;18.034;2023-03-04T09:13:14;100094.94;;;-0.53;39.41
51715;BME280;39115;59.332;18.034;2023-03-04T09:15:37;100127.09;;;-0.51;39.24
51715;BME280;39115;59.332;18.034;2023-03-04T09:17:57;100089.63;;;-0.52;39.11
51715;BME280;39115;59.332;18.034;2023-03-04T09:20:18;100094.53;;;-0.45;39.50
51715;BME280;39115;59.332;18.034;2023-03-04T09:22:40;100095.97;;;-0.40;39.31
51715;BME280;39115;59.332;18.034;2023-03-04T09:25:01;100079.22;;;-0.36;39.41
51715;BME280;39115;59.332;18.034;2023-03-04T09:27:22;100078.94;;;-0.31;39.22
51715;BME280;39115;59.332;18.034;2023-03-04T09:29:42;100091.63;;;-0.23;39.40
51715;BME280;39115;59.332;18.034;2023-03-04T09:32:04;100054.25;;;-0.25;39.23
51715;BME280;39115;59.332;18.034;2023-03-04T09:34:24;100103.78;;;-0.22;39.42
51715;BME280;39115;59.332;18.034;2023-03-04T09:36:45;100081.94;;;-0.21;39.40
51715;BME280;39115;59.332;18.034;2023-03-04T09:39:05;100073.75;;;-0.15;39.32
51715;BME280;39115;59.332;18.034;2023-03-04T09:41:48;100074.28;;;-0.08;39.12
51715;BME280;39115;59.332;18.034;2023-03-04T09:44:30;100085.19;;;0.00;39.24
51715;BME280;39115;59.332;18.034;2023-03-04T09:46:54;100082.22;;;0.06;39.05
51715;BME280;39115;59.332;18.034;2023-03-04T09:49:19;100079.94;;;0.16;39.16
51715;BME280;39115;59.332;18.034;2023-03-04T09:54:40;100076.22;;;0.36;39.08
51715;BME280;39115;59.332;18.034;2023-03-04T09:57:24;100079.25;;;0.44;39.03
51715;BME280;39115;59.332;18.034;2023-03-04T10:00:04;100086.88;;;0.49;39.09
51715;BME280;39115;59.332;18.034;2023-03-04T10:02:35;100075.28;;;0.53;39.35
51715;BME280;39115;59.332;18.034;2023-03-04T10:05:02;100088.78;;;0.61;39.18
51715;BME280;39115;59.332;18.034;2023-03-04T10:07:32;100077.13;;;0.67;39.11
51715;BME280;39115;59.332;18.034;2023-03-04T10:10:12;100093.91;;;0.63;39.54
51715;BME280;39115;59.332;18.034;2023-03-04T10:12:38;100078.19;;;0.63;39.46
51715;BME280;39115;59.332;18.034;2023-03-04T10:15:06;100096.03;;;0.72;39.33
51715;BME280;39115;59.332;18.034;2023-03-04T10:17:39;100083.94;;;0.70;39.48
51715;BME280;39115;59.332;18.034;2023-03-04T10:20:08;100072.72;;;0.68;39.77
51715;BME280;39115;59.332;18.034;2023-03-04T10:22:36;100069.81;;;0.72;39.78
51715;BME280;39115;59.332;18.034;2023-03-04T10:25:23;100073.88;;;0.78;39.72
51715;BME280;39115;59.332;18.034;2023-03-04T10:28:15;100062.56;;;0.77;39.93
51715;BME280;39115;59.332;18.034;2023-03-04T10:33:29;100149.50;;;1.00;39.83
51715;BME280;39115;59.332;18.034;2023-03-04T10:38:15;100082.09;;;1.17;39.58
51715;BME280;39115;59.332;18.034;2023-03-04T10:40:40;100092.13;;;1.10;39.93
51715;BME280;39115;59.332;18.034;2023-03-04T10:43:01;100096.91;;;1.18;39.89
51715;BME280;39115;59.332;18.034;2023-03-04T10:45:29;100079.53;;;1.31;39.74
51715;BME280;39115;59.332;18.034;2023-03-04T10:47:54;100136.91;;;1.21;40.36
51715;BME280;39115;59.332;18.034;2023-03-04T10:50:22;100121.13;;;1.37;40.23
51715;BME280;39115;59.332;18.034;2023-03-04T10:52:48;100092.75;;;1.44;39.99
51715;BME280;39115;59.332;18.034;2023-03-04T10:55:19;100077.97;;;1.43;40.07
51715;BME280;39115;59.332;18.034;2023-03-04T10:57:42;100082.94;;;1.48;40.30
51715;BME280;39115;59.332;18.034;2023-03-04T11:02:37;100095.03;;;1.65;40.46
51715;BME280;39115;59.332;18.034;2023-03-04T11:05:24;100107.09;;;1.67;40.71
51715;BME280;39115;59.332;18.034;2023-03-04T11:07:52;100093.06;;;1.68;40.76
51715;BME280;39115;59.332;18.034;2023-03-04T11:13:04;100081.13;;;1.77;40.22
51715;BME280;39115;59.332;18.034;2023-03-04T11:15:28;100068.22;;;1.74;40.43
51715;BME280;39115;59.332;18.034;2023-03-04T11:17:54;100094.09;;;1.80;40.65
51715;BME280;39115;59.332;18.034;2023-03-04T11:20:20;100085.53;;;1.91;40.46
51715;BME280;39115;59.332;18.034;2023-03-04T11:22:45;100067.28;;;1.89;40.69
51715;BME280;39115;59.332;18.034;2023-03-04T11:25:09;100089.59;;;1.82;40.78
51715;BME280;39115;59.332;18.034;2023-03-04T11:27:47;100096.13;;;1.75;40.94
51715;BME280;39115;59.332;18.034;2023-03-04T11:33:03;100083.13;;;1.59;40.54
51715;BME280;39115;59.332;18.034;2023-03-04T11:35:43;100076.28;;;1.71;40.63
51715;BME280;39115;59.332;18.034;2023-03-04T11:38:20;100071.78;;;1.87;40.82
51715;BME280;39115;59.332;18.034;2023-03-04T11:41:03;100078.03;;;1.99;40.85
51715;BME280;39115;59.332;18.034;2023-03-04T11:43:33;100077.81;;;2.02;40.65
51715;BME280;39115;59.332;18.034;2023-03-04T11:51:39;100112.84;;;2.45;40.55
51715;BME280;39115;59.332;18.034;2023-03-04T11:54:22;100070.50;;;2.49;40.63
51715;BME280;39115;59.332;18.034;2023-03-04T11:56:58;100080.50;;;2.57;40.66
51715;BME280;39115;59.332;18.034;2023-03-04T12:00:15;100065.72;;;2.56;40.43
51715;BME280;39115;59.332;18.034;2023-03-04T12:02:19;100068.72;;;2.50;40.63
51715;BME280;39115;59.332;18.034;2023-03-04T12:10:40;100089.34;;;2.56;40.67
51715;BME280;39115;59.332;18.034;2023-03-04T12:26:46;100106.69;;;2.31;40.71
51715;BME280;39115;59.332;18.034;2023-03-04T12:29:12;100080.31;;;2.33;40.68
51715;BME280;39115;59.332;18.034;2023-03-04T12:31:41;100074.75;;;2.37;40.82
51715;BME280;39115;59.332;18.034;2023-03-04T12:37:14;100084.69;;;2.47;40.72
51715;BME280;39115;59.332;18.034;2023-03-04T12:48:36;100090.34;;;2.41;40.82
51715;BME280;39115;59.332;18.034;2023-03-04T12:51:53;100078.03;;;2.41;40.64
51715;BME280;39115;59.332;18.034;2023-03-04T12:54:31;100091.06;;;2.43;40.77
51715;BME280;39115;59.332;18.034;2023-03-04T12:56:58;100106.09;;;2.41;40.70
51715;BME280;39115;59.332;18.034;2023-03-04T12:59:21;100084.34;;;2.39;40.54
51715;BME280;39115;59.332;18.034;2023-03-04T13:02:24;100082.53;;;2.39;40.88
51715;BME280;39115;59.332;18.034;2023-03-04T13:04:56;100066.78;;;2.39;40.60
51715;BME280;39115;59.332;18.034;2023-03-04T13:07:51;100077.22;;;2.41;40.96
51715;BME280;39115;59.332;18.034;2023-03-04T13:10:17;100097.06;;;2.45;41.01
51715;BME280;39115;59.332;18.034;2023-03-04T13:17:50;100118.84;;;2.74;40.89
51715;BME280;39115;59.332;18.034;2023-03-04T13:22:56;100082.78;;;2.76;41.16
51715;BME280;39115;59.332;18.034;2023-03-04T13:32:52;100125.28;;;2.56;41.48
51715;BME280;39115;59.332;18.034;2023-03-04T13:48:39;100140.66;;;2.20;43.47
51715;BME280;39115;59.332;18.034;2023-03-04T13:51:00;100129.75;;;2.26;43.90
51715;BME280;39115;59.332;18.034;2023-03-04T13:53:39;100135.06;;;2.39;43.82
51715;BME280;39115;59.332;18.034;2023-03-04T13:58:43;100131.38;;;2.29;44.14